Time;durP1;ratioP1;P1;durP2;ratioP2;P2;SDS_P1;SDS_P2;PMS_P1;PMS_P2;Temp;Humidity;BMP_temperature;BMP_pressure;BME280_temperature;BME280_humidity;BME280_pressure;Samples;Min_cycle;Max_cycle;Signal;HPM_P1;HPM_P2
2023/12/27 00:02:23;;;;;;;30.13;11.30;;;;;;;;;;4925351;29;20229;-73
2023/12/27 00:04:49;;;;;;;24.07;11.43;;;;;;;;;;4925525;29;20806;-74
2023/12/27 00:07:14;;;;;;;28.40;11.03;;;;;;;;;;4915097;29;20284;-73
2023/12/27 00:09:39;;;;;;;22.87;10.37;;;;;;;;;;4911643;29;20315;-73
2023/12/27 00:12:05;;;;;;;24.10;10.10;;;;;;;;;;4923967;29;20304;-73
2023/12/27 00:14:30;;;;;;;28.10;10.40;;;;;;;;;;4906403;29;20293;-73
2023/12/27 00:16:55;;;;;;;24.20;11.03;;;;;;;;;;4923633;29;20221;-72
2023/12/27 00:19:21;;;;;;;30.17;11.20;;;;;;;;;;4924156;29;20233;-70
2023/12/27 00:21:46;;;;;;;23.83;10.67;;;;;;;;;;4922307;29;20264;-70
2023/12/27 00:24:11;;;;;;;25.37;10.80;;;;;;;;;;4908375;29;20220;-71
2023/12/27 00:26:37;;;;;;;25.70;11.20;;;;;;;;;;4924795;29;21043;-71
2023/12/27 00:29:02;;;;;;;27.10;11.43;;;;;;;;;;4924108;29;20225;-71
2023/12/27 00:31:28;;;;;;;26.87;11.73;;;;;;;;;;4904049;29;20293;-71
2023/12/27 00:33:53;;;;;;;28.30;11.27;;;;;;;;;;4915996;29;20284;-71
2023/12/27 00:36:20;;;;;;;27.07;10.93;;;;;;;;;;4908126;29;20213;-71
2023/12/27 00:38:45;;;;;;;25.33;11.17;;;;;;;;;;4922293;29;20309;-71
2023/12/27 00:41:10;;;;;;;23.40;11.40;;;;;;;;;;4940043;28;20729;-72
2023/12/27 00:43:36;;;;;;;28.77;11.57;;;;;;;;;;4925150;29;20364;-71
2023/12/27 00:46:02;;;;;;;24.07;11.10;;;;;;;;;;4924237;29;20232;-70
2023/12/27 00:48:28;;;;;;;24.67;11.00;;;;;;;;;;4923541;29;20226;-70
2023/12/27 00:50:53;;;;;;;26.60;11.30;;;;;;;;;;4923170;29;20230;-71
2023/12/27 00:53:18;;;;;;;23.77;10.90;;;;;;;;;;4923268;29;20619;-71
2023/12/27 00:55:44;;;;;;;24.13;10.70;;;;;;;;;;4924195;29;20264;-72
2023/12/27 00:58:09;;;;;;;25.97;11.10;;;;;;;;;;4925045;29;20225;-72
2023/12/27 01:00:34;;;;;;;24.73;11.00;;;;;;;;;;4927550;29;20225;-71
2023/12/27 01:03:00;;;;;;;24.60;10.57;;;;;;;;;;4910328;29;20229;-73
2023/12/27 01:05:25;;;;;;;26.53;11.20;;;;;;;;;;4927063;29;20589;-72
2023/12/27 01:07:50;;;;;;;24.23;10.10;;;;;;;;;;4909644;29;20242;-73
2023/12/27 01:10:16;;;;;;;26.30;10.00;;;;;;;;;;4927127;29;20330;-72
2023/12/27 01:12:41;;;;;;;23.57;10.30;;;;;;;;;;4926443;29;20299;-73
2023/12/27 01:15:06;;;;;;;26.03;10.40;;;;;;;;;;4926298;29;20272;-72
2023/12/27 01:17:32;;;;;;;23.30;11.23;;;;;;;;;;4925950;29;20222;-73
2023/12/27 01:19:57;;;;;;;30.47;14.30;;;;;;;;;;4926114;29;20304;-73
2023/12/27 01:22:22;;;;;;;28.43;13.07;;;;;;;;;;4928113;29;20255;-73
2023/12/27 01:24:48;;;;;;;27.20;12.93;;;;;;;;;;4925775;29;20225;-73
2023/12/27 01:27:13;;;;;;;25.97;12.27;;;;;;;;;;4927501;29;20237;-72
2023/12/27 01:29:38;;;;;;;23.90;10.27;;;;;;;;;;4917096;29;20225;-72
2023/12/27 01:32:04;;;;;;;23.43;10.43;;;;;;;;;;4907118;29;20233;-73
2023/12/27 01:34:29;;;;;;;23.07;10.13;;;;;;;;;;4921946;29;20226;-72
2023/12/27 01:36:54;;;;;;;22.63;9.80;;;;;;;;;;4926021;29;20295;-72
2023/12/27 01:39:20;;;;;;;24.23;10.27;;;;;;;;;;4910491;29;20328;-73
2023/12/27 01:41:45;;;;;;;23.27;9.80;;;;;;;;;;4925769;29;20260;-71
2023/12/27 01:44:11;;;;;;;23.80;9.67;;;;;;;;;;4925984;29;20217;-71
2023/12/27 01:46:37;;;;;;;24.27;9.67;;;;;;;;;;4910099;29;20224;-71
2023/12/27 01:49:02;;;;;;;21.80;9.37;;;;;;;;;;4926494;29;20217;-71
2023/12/27 01:51:28;;;;;;;23.73;9.70;;;;;;;;;;4927198;29;20359;-71
2023/12/27 01:53:53;;;;;;;22.37;10.10;;;;;;;;;;4910163;29;20229;-71
2023/12/27 01:56:18;;;;;;;19.87;9.07;;;;;;;;;;4925815;29;20225;-70
2023/12/27 01:58:44;;;;;;;23.33;9.57;;;;;;;;;;4925724;29;20233;-71
2023/12/27 02:01:09;;;;;;;20.70;9.43;;;;;;;;;;4909179;29;20236;-71
2023/12/27 02:03:34;;;;;;;22.87;10.20;;;;;;;;;;4909987;29;20245;-71
2023/12/27 02:06:00;;;;;;;19.17;9.20;;;;;;;;;;4926532;29;20699;-71
2023/12/27 02:08:25;;;;;;;23.37;9.23;;;;;;;;;;4926166;29;20233;-71
2023/12/27 02:10:50;;;;;;;19.73;9.30;;;;;;;;;;4924548;29;20721;-71
2023/12/27 02:13:16;;;;;;;22.33;9.67;;;;;;;;;;4925180;29;20720;-71
2023/12/27 02:15:42;;;;;;;18.13;9.00;;;;;;;;;;4924674;29;20233;-71
2023/12/27 02:18:08;;;;;;;19.83;8.60;;;;;;;;;;4910369;29;20292;-71
2023/12/27 02:20:33;;;;;;;21.20;8.57;;;;;;;;;;4925797;29;20226;-71
2023/12/27 02:22:59;;;;;;;22.10;9.20;;;;;;;;;;4908964;29;20264;-70
2023/12/27 02:25:24;;;;;;;20.83;8.73;;;;;;;;;;4925911;29;20615;-71
2023/12/27 02:27:50;;;;;;;25.00;8.40;;;;;;;;;;4909009;29;20304;-70
2023/12/27 02:30:21;;;;;;;20.77;8.20;;;;;;;;;;4925487;29;20225;-72
2023/12/27 02:32:47;;;;;;;22.07;8.80;;;;;;;;;;4923551;29;20240;-71
2023/12/27 02:35:12;;;;;;;19.20;8.43;;;;;;;;;;4909738;29;20252;-71
2023/12/27 02:37:37;;;;;;;23.30;9.30;;;;;;;;;;4925889;29;20251;-73
2023/12/27 02:40:03;;;;;;;23.33;10.60;;;;;;;;;;4923944;29;20226;-72
2023/12/27 02:42:29;;;;;;;18.57;9.03;;;;;;;;;;4926917;29;20296;-71
2023/12/27 02:44:54;;;;;;;21.00;9.00;;;;;;;;;;4924618;29;20305;-71
2023/12/27 02:47:19;;;;;;;20.13;8.90;;;;;;;;;;4926752;29;21103;-72
2023/12/27 02:49:45;;;;;;;18.83;8.17;;;;;;;;;;4924933;29;20678;-73
2023/12/27 02:52:10;;;;;;;17.80;8.40;;;;;;;;;;4920676;29;20803;-72
2023/12/27 02:54:35;;;;;;;22.77;9.03;;;;;;;;;;4936337;29;20897;-73
2023/12/27 02:57:01;;;;;;;21.07;9.30;;;;;;;;;;4924640;29;20320;-72
2023/12/27 02:59:26;;;;;;;21.97;9.73;;;;;;;;;;4924928;29;20221;-73
2023/12/27 03:01:51;;;;;;;20.33;9.53;;;;;;;;;;4923942;29;20252;-72
2023/12/27 03:04:17;;;;;;;18.63;9.03;;;;;;;;;;4908595;29;20230;-73
2023/12/27 03:06:42;;;;;;;20.70;9.63;;;;;;;;;;4925690;29;20336;-71
2023/12/27 03:09:07;;;;;;;20.73;9.03;;;;;;;;;;4923977;29;20229;-70
2023/12/27 03:11:33;;;;;;;22.47;9.47;;;;;;;;;;4896741;29;20309;-70
2023/12/27 03:13:58;;;;;;;18.13;8.80;;;;;;;;;;4926328;29;20766;-71
2023/12/27 03:16:24;;;;;;;21.17;9.27;;;;;;;;;;4908677;29;20224;-71
2023/12/27 03:18:49;;;;;;;25.00;9.70;;;;;;;;;;4907582;29;20829;-71
2023/12/27 03:21:15;;;;;;;23.73;9.60;;;;;;;;;;4908744;29;20616;-70
2023/12/27 03:23:40;;;;;;;22.87;9.33;;;;;;;;;;4908465;29;20762;-71
2023/12/27 03:26:05;;;;;;;22.37;9.27;;;;;;;;;;4924436;29;20223;-70
2023/12/27 03:28:31;;;;;;;20.67;9.00;;;;;;;;;;4908457;29;20911;-71
2023/12/27 03:30:56;;;;;;;22.97;9.27;;;;;;;;;;4925387;29;20228;-71
2023/12/27 03:33:21;;;;;;;22.60;9.60;;;;;;;;;;4925651;29;20614;-71
2023/12/27 03:35:47;;;;;;;21.90;9.60;;;;;;;;;;4923282;29;20220;-71
2023/12/27 03:38:12;;;;;;;25.07;9.47;;;;;;;;;;4924566;29;20229;-71
2023/12/27 03:40:38;;;;;;;21.33;9.73;;;;;;;;;;4906720;29;20237;-72
2023/12/27 03:43:03;;;;;;;22.83;9.57;;;;;;;;;;4908004;29;20221;-73
2023/12/27 03:45:28;;;;;;;22.93;9.53;;;;;;;;;;4907926;29;20300;-73
2023/12/27 03:47:54;;;;;;;22.23;10.27;;;;;;;;;;4907371;29;20244;-72
2023/12/27 03:50:19;;;;;;;26.07;10.53;;;;;;;;;;4908560;29;20236;-72
2023/12/27 03:52:44;;;;;;;24.37;10.93;;;;;;;;;;4925635;29;20279;-73
2023/12/27 03:55:10;;;;;;;29.00;11.10;;;;;;;;;;4923902;29;20217;-72
2023/12/27 03:57:35;;;;;;;25.77;10.70;;;;;;;;;;4907437;29;20225;-72
2023/12/27 04:00:01;;;;;;;20.80;9.17;;;;;;;;;;4924014;29;20221;-72
2023/12/27 04:02:26;;;;;;;22.07;9.80;;;;;;;;;;4924518;29;20388;-72
2023/12/27 04:04:51;;;;;;;20.83;8.77;;;;;;;;;;4923174;29;20233;-72
2023/12/27 04:07:17;;;;;;;18.93;9.50;;;;;;;;;;4922150;29;20234;-72
2023/12/27 04:09:42;;;;;;;19.30;9.03;;;;;;;;;;4907976;29;20249;-73
2023/12/27 04:12:07;;;;;;;17.37;8.30;;;;;;;;;;4923940;29;20232;-74
2023/12/27 04:14:33;;;;;;;17.70;8.50;;;;;;;;;;4923926;29;20217;-72
2023/12/27 04:16:58;;;;;;;20.47;7.20;;;;;;;;;;4906541;29;20236;-74
2023/12/27 04:19:24;;;;;;;16.83;7.13;;;;;;;;;;4925856;29;20225;-73
2023/12/27 04:21:49;;;;;;;18.17;7.67;;;;;;;;;;4923358;29;20711;-73
2023/12/27 04:24:14;;;;;;;21.83;7.50;;;;;;;;;;4924718;29;20688;-71
2023/12/27 04:26:40;;;;;;;16.80;7.33;;;;;;;;;;4923381;29;20276;-71
2023/12/27 04:29:05;;;;;;;19.33;7.87;;;;;;;;;;4923852;29;20278;-70
2023/12/27 04:31:31;;;;;;;21.57;7.67;;;;;;;;;;4907657;29;20221;-69
2023/12/27 04:33:56;;;;;;;20.97;7.47;;;;;;;;;;4926993;29;20228;-71
2023/12/27 04:36:21;;;;;;;18.30;7.87;;;;;;;;;;4927076;29;20277;-71
2023/12/27 04:38:47;;;;;;;18.23;6.80;;;;;;;;;;4931005;29;20226;-73
2023/12/27 04:41:12;;;;;;;18.73;7.17;;;;;;;;;;4911907;29;20237;-72
2023/12/27 04:43:37;;;;;;;19.23;7.43;;;;;;;;;;4926709;29;20312;-72
2023/12/27 04:46:07;;;;;;;16.93;7.23;;;;;;;;;;4928303;29;20708;-72
2023/12/27 04:48:32;;;;;;;15.77;6.97;;;;;;;;;;4911322;29;20234;-72
2023/12/27 04:50:58;;;;;;;19.57;8.13;;;;;;;;;;4928745;29;20284;-73
2023/12/27 04:53:23;;;;;;;19.60;8.17;;;;;;;;;;4910066;29;20230;-72
2023/12/27 04:55:48;;;;;;;18.63;7.30;;;;;;;;;;4926939;29;20920;-73
2023/12/27 04:58:14;;;;;;;17.90;7.73;;;;;;;;;;4911592;29;20753;-74
2023/12/27 05:00:39;;;;;;;17.37;7.57;;;;;;;;;;4909702;29;20328;-74
2023/12/27 05:03:05;;;;;;;22.27;7.97;;;;;;;;;;4926033;29;20249;-74
2023/12/27 05:05:30;;;;;;;15.73;7.37;;;;;;;;;;4927122;29;20221;-73
2023/12/27 05:07:55;;;;;;;20.83;7.43;;;;;;;;;;4927543;29;20243;-73
2023/12/27 05:10:21;;;;;;;20.17;7.80;;;;;;;;;;4928579;29;20747;-73
2023/12/27 05:12:46;;;;;;;21.03;8.27;;;;;;;;;;4910968;29;20809;-73
2023/12/27 05:15:11;;;;;;;20.97;8.43;;;;;;;;;;4927222;29;20912;-72
2023/12/27 05:17:37;;;;;;;20.17;8.10;;;;;;;;;;4911231;29;20770;-72
2023/12/27 05:20:03;;;;;;;18.23;8.00;;;;;;;;;;4911031;29;20224;-73
2023/12/27 05:22:29;;;;;;;21.03;8.67;;;;;;;;;;4927012;29;20225;-72
2023/12/27 05:24:55;;;;;;;21.17;8.93;;;;;;;;;;4927553;29;20239;-70
2023/12/27 05:27:20;;;;;;;16.83;8.50;;;;;;;;;;4911208;29;20350;-70
2023/12/27 05:29:45;;;;;;;20.97;9.20;;;;;;;;;;4923865;29;20274;-70
2023/12/27 05:32:12;;;;;;;19.57;8.97;;;;;;;;;;4926264;29;20217;-70
2023/12/27 05:34:37;;;;;;;20.47;9.03;;;;;;;;;;4924771;29;20226;-73
2023/12/27 05:37:03;;;;;;;19.53;9.30;;;;;;;;;;4923743;29;20233;-72
2023/12/27 05:39:28;;;;;;;21.20;9.30;;;;;;;;;;4922028;29;20217;-72
2023/12/27 05:41:54;;;;;;;25.00;9.70;;;;;;;;;;4925658;29;20789;-72
2023/12/27 05:44:19;;;;;;;24.00;10.17;;;;;;;;;;4925682;29;20225;-72
2023/12/27 05:46:44;;;;;;;23.60;11.07;;;;;;;;;;4926268;29;20340;-71
2023/12/27 05:49:10;;;;;;;28.90;12.07;;;;;;;;;;4927266;29;20332;-70
2023/12/27 05:51:35;;;;;;;29.70;12.90;;;;;;;;;;4926442;29;20303;-70
2023/12/27 05:54:02;;;;;;;26.80;11.00;;;;;;;;;;4925120;29;20256;-71
2023/12/27 05:56:28;;;;;;;29.70;12.37;;;;;;;;;;4910108;29;20620;-70
2023/12/27 05:58:53;;;;;;;29.87;12.80;;;;;;;;;;4926228;29;20227;-71
2023/12/27 06:01:18;;;;;;;29.23;12.90;;;;;;;;;;4925916;29;20238;-71
2023/12/27 06:03:44;;;;;;;32.17;13.27;;;;;;;;;;4925304;29;20732;-71
2023/12/27 06:06:09;;;;;;;28.23;12.83;;;;;;;;;;4926108;29;20775;-71
2023/12/27 06:08:35;;;;;;;27.03;12.57;;;;;;;;;;4925461;29;20296;-72
2023/12/27 06:11:00;;;;;;;25.57;11.33;;;;;;;;;;4925153;29;20636;-72
2023/12/27 06:13:26;;;;;;;26.00;11.67;;;;;;;;;;4915319;29;20229;-72
2023/12/27 06:15:51;;;;;;;26.83;11.50;;;;;;;;;;4926813;29;20328;-71
2023/12/27 06:18:16;;;;;;;27.87;12.30;;;;;;;;;;4925123;29;20675;-71
2023/12/27 06:20:42;;;;;;;30.73;12.83;;;;;;;;;;4924912;29;20241;-72
2023/12/27 06:23:07;;;;;;;27.53;11.73;;;;;;;;;;4919209;29;20233;-72
2023/12/27 06:25:32;;;;;;;26.90;12.10;;;;;;;;;;4924744;29;21304;-71
2023/12/27 06:27:58;;;;;;;30.87;12.63;;;;;;;;;;4926194;29;20226;-71
2023/12/27 06:30:23;;;;;;;27.90;12.53;;;;;;;;;;4925609;29;20225;-72
2023/12/27 06:32:49;;;;;;;26.33;11.63;;;;;;;;;;4926012;29;20280;-72
2023/12/27 06:35:14;;;;;;;19.47;9.33;;;;;;;;;;4922385;29;20226;-72
2023/12/27 06:37:40;;;;;;;23.50;9.20;;;;;;;;;;4906547;29;20281;-72
2023/12/27 06:40:05;;;;;;;21.97;8.97;;;;;;;;;;4906649;29;20226;-71
2023/12/27 06:42:30;;;;;;;20.27;8.50;;;;;;;;;;4905890;29;20266;-71
2023/12/27 06:44:56;;;;;;;19.50;8.60;;;;;;;;;;4905032;29;20228;-70
2023/12/27 06:47:21;;;;;;;17.57;8.00;;;;;;;;;;4907364;29;20237;-72
2023/12/27 06:49:47;;;;;;;16.97;7.63;;;;;;;;;;4907089;29;20245;-72
2023/12/27 06:52:13;;;;;;;16.60;7.40;;;;;;;;;;4906983;29;20260;-71
2023/12/27 06:54:38;;;;;;;18.13;7.60;;;;;;;;;;4905382;29;20273;-70
2023/12/27 06:57:04;;;;;;;15.97;6.80;;;;;;;;;;4905554;29;20229;-71
2023/12/27 06:59:29;;;;;;;19.00;6.70;;;;;;;;;;4907184;29;20230;-71
2023/12/27 07:01:54;;;;;;;15.97;6.57;;;;;;;;;;4920893;29;20242;-71
2023/12/27 07:04:20;;;;;;;14.60;6.50;;;;;;;;;;4907839;29;20218;-70
2023/12/27 07:06:45;;;;;;;15.30;6.60;;;;;;;;;;4904617;29;20249;-70
2023/12/27 07:09:10;;;;;;;18.40;6.90;;;;;;;;;;4907636;29;20225;-70
2023/12/27 07:11:36;;;;;;;17.37;7.37;;;;;;;;;;4906633;29;20237;-70
2023/12/27 07:14:01;;;;;;;16.53;7.43;;;;;;;;;;4903432;29;20237;-72
2023/12/27 07:16:27;;;;;;;17.87;7.70;;;;;;;;;;4904575;29;20229;-72
2023/12/27 07:18:52;;;;;;;15.77;7.53;;;;;;;;;;4898380;29;20906;-71
2023/12/27 07:21:17;;;;;;;15.50;7.47;;;;;;;;;;4923339;29;20734;-72
2023/12/27 07:23:43;;;;;;;17.27;7.33;;;;;;;;;;4922331;29;20236;-72
2023/12/27 07:26:14;;;;;;;16.73;7.60;;;;;;;;;;4922140;29;20318;-72
2023/12/27 07:28:40;;;;;;;39.43;18.90;;;;;;;;;;4907406;29;20229;-73
2023/12/27 07:31:06;;;;;;;64.70;29.17;;;;;;;;;;4922022;29;20236;-72
2023/12/27 07:33:31;;;;;;;71.03;30.60;;;;;;;;;;4922312;29;20589;-72
2023/12/27 07:35:56;;;;;;;54.37;26.43;;;;;;;;;;4905092;29;20323;-73
2023/12/27 07:38:23;;;;;;;64.00;29.37;;;;;;;;;;4921677;29;20237;-70
2023/12/27 07:40:48;;;;;;;60.27;27.00;;;;;;;;;;4921610;29;20245;-72
2023/12/27 07:43:14;;;;;;;42.17;17.10;;;;;;;;;;4927292;29;20363;-70
2023/12/27 07:45:39;;;;;;;35.20;15.60;;;;;;;;;;4907067;29;20256;-70
2023/12/27 07:48:05;;;;;;;27.77;12.43;;;;;;;;;;4907012;29;20992;-71
2023/12/27 07:50:30;;;;;;;24.60;12.07;;;;;;;;;;4922876;29;20702;-72
2023/12/27 07:52:56;;;;;;;26.67;9.83;;;;;;;;;;4922753;29;20300;-70
2023/12/27 07:55:21;;;;;;;25.77;9.60;;;;;;;;;;4923858;29;20225;-72
2023/12/27 07:57:47;;;;;;;22.40;9.63;;;;;;;;;;4922777;29;20239;-71
2023/12/27 08:00:15;;;;;;;20.50;8.87;;;;;;;;;;4927669;29;20276;-70
2023/12/27 08:02:40;;;;;;;17.67;7.37;;;;;;;;;;4923034;29;20715;-73
2023/12/27 08:05:06;;;;;;;19.20;7.00;;;;;;;;;;4923197;29;20224;-71
2023/12/27 08:07:32;;;;;;;20.63;6.90;;;;;;;;;;4916979;29;20230;-71
2023/12/27 08:09:57;;;;;;;17.47;6.80;;;;;;;;;;4915745;29;20220;-71
2023/12/27 08:12:23;;;;;;;18.03;7.00;;;;;;;;;;4925633;29;20229;-71
2023/12/27 08:14:48;;;;;;;15.87;6.20;;;;;;;;;;4926195;29;20214;-71
2023/12/27 08:17:14;;;;;;;19.47;6.63;;;;;;;;;;4923158;29;20266;-72
2023/12/27 08:19:39;;;;;;;14.73;6.10;;;;;;;;;;4926860;29;20280;-73
2023/12/27 08:22:04;;;;;;;16.97;6.60;;;;;;;;;;4928378;29;20245;-73
2023/12/27 08:24:30;;;;;;;17.23;6.60;;;;;;;;;;4927383;29;20209;-73
2023/12/27 08:26:56;;;;;;;18.23;6.63;;;;;;;;;;4926866;29;20515;-74
2023/12/27 08:29:22;;;;;;;18.60;6.57;;;;;;;;;;4927387;29;20232;-73
2023/12/27 08:31:47;;;;;;;16.63;6.90;;;;;;;;;;4928690;29;20222;-74
2023/12/27 08:34:13;;;;;;;15.90;6.47;;;;;;;;;;4928635;29;20860;-74
2023/12/27 08:36:39;;;;;;;15.30;6.90;;;;;;;;;;4928698;29;20281;-73
2023/12/27 08:39:04;;;;;;;17.43;7.10;;;;;;;;;;4926778;29;20276;-73
2023/12/27 08:41:30;;;;;;;15.70;6.33;;;;;;;;;;4910717;29;20328;-73
2023/12/27 08:43:55;;;;;;;17.17;6.70;;;;;;;;;;4914211;29;20696;-73
2023/12/27 08:46:20;;;;;;;14.50;6.77;;;;;;;;;;4928029;29;20229;-73
2023/12/27 08:48:46;;;;;;;17.57;6.77;;;;;;;;;;4929652;29;20233;-73
2023/12/27 08:51:12;;;;;;;16.03;7.07;;;;;;;;;;4926570;29;20232;-73
2023/12/27 08:53:37;;;;;;;14.83;7.17;;;;;;;;;;4927844;29;20225;-73
2023/12/27 08:56:02;;;;;;;15.53;7.10;;;;;;;;;;4910492;29;20217;-73
2023/12/27 08:58:28;;;;;;;20.00;6.87;;;;;;;;;;4925662;29;20260;-74
2023/12/27 09:00:53;;;;;;;18.53;7.10;;;;;;;;;;4925736;29;20324;-74
2023/12/27 09:03:19;;;;;;;20.83;7.20;;;;;;;;;;4928219;29;20225;-73
2023/12/27 09:05:45;;;;;;;19.33;7.30;;;;;;;;;;4926246;29;20312;-74
2023/12/27 09:08:10;;;;;;;19.83;8.23;;;;;;;;;;4926590;29;20241;-73
2023/12/27 09:10:35;;;;;;;15.83;7.00;;;;;;;;;;4911560;29;20252;-74
2023/12/27 09:13:01;;;;;;;15.23;6.70;;;;;;;;;;4926146;29;20285;-72
2023/12/27 09:15:26;;;;;;;15.63;6.13;;;;;;;;;;4928212;29;20221;-71
2023/12/27 09:17:51;;;;;;;14.07;6.20;;;;;;;;;;4926444;29;20276;-71
2023/12/27 09:20:17;;;;;;;11.77;5.47;;;;;;;;;;4927519;29;20262;-73
2023/12/27 09:22:42;;;;;;;15.17;5.60;;;;;;;;;;4910303;29;20243;-71
2023/12/27 09:25:08;;;;;;;12.70;5.53;;;;;;;;;;4910793;29;20266;-73
2023/12/27 09:27:33;;;;;;;13.00;5.10;;;;;;;;;;4926882;29;20225;-71
2023/12/27 09:29:58;;;;;;;12.03;5.03;;;;;;;;;;4927165;29;20285;-73
2023/12/27 09:32:24;;;;;;;9.07;4.73;;;;;;;;;;4927357;29;20229;-72
2023/12/27 09:34:49;;;;;;;12.30;5.07;;;;;;;;;;4924364;29;20240;-71
2023/12/27 09:37:14;;;;;;;10.20;5.13;;;;;;;;;;4909043;29;20218;-72
2023/12/27 09:39:40;;;;;;;11.87;5.17;;;;;;;;;;4924862;29;20214;-73
2023/12/27 09:42:05;;;;;;;14.20;4.70;;;;;;;;;;4927333;29;20248;-71
2023/12/27 09:44:32;;;;;;;12.00;5.00;;;;;;;;;;4926698;29;20582;-72
2023/12/27 09:46:57;;;;;;;11.70;4.90;;;;;;;;;;4910042;29;20821;-73
2023/12/27 09:49:23;;;;;;;12.50;5.03;;;;;;;;;;4926326;29;20225;-72
2023/12/27 09:51:48;;;;;;;10.80;4.53;;;;;;;;;;4925760;29;20221;-72
2023/12/27 09:54:16;;;;;;;12.17;5.10;;;;;;;;;;4926142;29;20288;-72
2023/12/27 09:56:41;;;;;;;13.77;4.70;;;;;;;;;;4926009;29;20300;-72
2023/12/27 09:59:06;;;;;;;11.40;4.37;;;;;;;;;;4918348;29;20718;-73
2023/12/27 10:01:34;;;;;;;10.77;4.33;;;;;;;;;;4924301;29;20884;-72
2023/12/27 10:04:04;;;;;;;11.87;3.93;;;;;;;;;;4924223;29;20269;-72
2023/12/27 10:06:34;;;;;;;9.50;4.20;;;;;;;;;;4925686;29;20328;-73
2023/12/27 10:09:00;;;;;;;8.43;4.20;;;;;;;;;;4907368;29;20226;-73
2023/12/27 10:11:25;;;;;;;9.60;4.60;;;;;;;;;;4909230;29;20213;-73
2023/12/27 10:13:50;;;;;;;9.60;4.67;;;;;;;;;;4908726;29;20241;-72
2023/12/27 10:16:17;;;;;;;13.83;4.60;;;;;;;;;;4909930;29;20221;-73
2023/12/27 10:18:44;;;;;;;9.27;3.67;;;;;;;;;;4924943;29;20221;-73
2023/12/27 10:21:09;;;;;;;10.03;4.30;;;;;;;;;;4925312;29;20241;-73
2023/12/27 10:23:35;;;;;;;10.97;3.87;;;;;;;;;;4926667;29;20285;-74
2023/12/27 10:26:00;;;;;;;8.27;4.13;;;;;;;;;;4924853;29;20250;-74
2023/12/27 10:28:25;;;;;;;9.97;4.03;;;;;;;;;;4909228;29;20240;-71
2023/12/27 10:30:51;;;;;;;11.27;4.57;;;;;;;;;;4924228;29;20233;-71
2023/12/27 10:33:17;;;;;;;10.10;4.00;;;;;;;;;;4925201;29;20218;-72
2023/12/27 10:35:42;;;;;;;8.63;4.10;;;;;;;;;;4925922;29;21106;-71
2023/12/27 10:38:08;;;;;;;10.77;4.50;;;;;;;;;;4926497;29;20230;-71
2023/12/27 10:40:33;;;;;;;9.47;4.20;;;;;;;;;;4925733;29;20324;-71
2023/12/27 10:42:59;;;;;;;11.23;4.40;;;;;;;;;;4924223;29;20241;-70
2023/12/27 10:45:25;;;;;;;8.27;3.93;;;;;;;;;;4909965;29;20217;-71
2023/12/27 10:47:59;;;;;;;16.13;4.50;;;;;;;;;;4924280;29;20231;-70
2023/12/27 10:50:26;;;;;;;10.80;4.40;;;;;;;;;;4921566;29;20731;-71
2023/12/27 10:52:59;;;;;;;8.50;4.03;;;;;;;;;;4907316;29;20226;-69
2023/12/27 10:55:24;;;;;;;9.50;4.30;;;;;;;;;;4921086;29;20317;-69
2023/12/27 10:57:52;;;;;;;13.87;5.60;;;;;;;;;;4922842;29;20262;-71
2023/12/27 11:00:18;;;;;;;9.17;3.97;;;;;;;;;;4908250;29;20226;-71
2023/12/27 11:02:43;;;;;;;10.23;4.30;;;;;;;;;;4924162;29;20732;-70
2023/12/27 11:05:08;;;;;;;8.53;4.27;;;;;;;;;;4905587;29;20572;-70
2023/12/27 11:07:37;;;;;;;8.10;4.07;;;;;;;;;;4917910;29;20249;-71
2023/12/27 11:10:05;;;;;;;8.37;4.20;;;;;;;;;;4920217;29;20299;-71
2023/12/27 11:12:31;;;;;;;8.40;3.93;;;;;;;;;;4925617;29;20626;-70
2023/12/27 11:14:56;;;;;;;13.43;4.30;;;;;;;;;;4908131;29;20225;-71
2023/12/27 11:17:21;;;;;;;9.20;4.20;;;;;;;;;;4923232;29;20728;-71
2023/12/27 11:19:47;;;;;;;10.67;4.50;;;;;;;;;;4925148;29;20337;-70
2023/12/27 11:22:12;;;;;;;9.70;4.10;;;;;;;;;;4924416;29;20308;-71
2023/12/27 11:24:39;;;;;;;10.23;4.40;;;;;;;;;;4906560;29;20996;-71
2023/12/27 11:27:04;;;;;;;12.20;4.40;;;;;;;;;;4907144;29;20258;-71
2023/12/27 11:29:30;;;;;;;8.33;4.20;;;;;;;;;;4908254;29;20229;-72
2023/12/27 11:31:57;;;;;;;13.37;4.80;;;;;;;;;;4913582;29;20225;-71
2023/12/27 11:34:22;;;;;;;11.50;4.20;;;;;;;;;;4907778;29;20864;-70
2023/12/27 11:36:49;;;;;;;9.10;3.77;;;;;;;;;;4923385;29;20233;-70
2023/12/27 11:39:17;;;;;;;11.03;4.10;;;;;;;;;;4905893;29;20226;-71
2023/12/27 11:41:42;;;;;;;8.83;4.30;;;;;;;;;;4922739;29;20245;-71
2023/12/27 11:44:08;;;;;;;10.63;4.33;;;;;;;;;;4908049;29;20225;-70
2023/12/27 11:46:33;;;;;;;10.13;4.40;;;;;;;;;;4908049;29;21010;-70
2023/12/27 11:48:59;;;;;;;9.67;4.00;;;;;;;;;;4923027;29;20229;-72
2023/12/27 11:51:28;;;;;;;7.43;4.03;;;;;;;;;;4923534;29;20240;-71
2023/12/27 11:53:53;;;;;;;11.47;4.60;;;;;;;;;;4922916;29;20221;-71
2023/12/27 11:56:19;;;;;;;8.67;4.10;;;;;;;;;;4924722;29;20660;-71
2023/12/27 11:58:44;;;;;;;11.23;4.73;;;;;;;;;;4923369;29;20296;-72
2023/12/27 12:01:19;;;;;;;11.97;4.60;;;;;;;;;;4923803;29;20668;-72
2023/12/27 12:03:44;;;;;;;11.07;5.27;;;;;;;;;;4922951;29;20810;-70
2023/12/27 12:06:13;;;;;;;9.60;4.10;;;;;;;;;;4924301;29;20213;-74
2023/12/27 12:08:44;;;;;;;8.77;4.13;;;;;;;;;;4924970;29;20237;-73
2023/12/27 12:11:12;;;;;;;12.10;4.23;;;;;;;;;;4895198;29;20301;-74
2023/12/27 12:13:39;;;;;;;8.97;4.33;;;;;;;;;;4905014;29;20300;-73
2023/12/27 12:16:05;;;;;;;12.83;4.47;;;;;;;;;;4924885;29;20229;-74
2023/12/27 12:18:31;;;;;;;9.97;4.60;;;;;;;;;;4924071;29;20233;-73
2023/12/27 12:20:56;;;;;;;11.27;4.70;;;;;;;;;;4923610;29;20241;-75
2023/12/27 12:23:21;;;;;;;10.37;4.70;;;;;;;;;;4924531;29;21204;-74
2023/12/27 12:25:47;;;;;;;10.43;4.57;;;;;;;;;;4911909;29;20222;-74
2023/12/27 12:28:13;;;;;;;10.50;4.83;;;;;;;;;;4920027;29;20236;-74
2023/12/27 12:30:39;;;;;;;15.57;5.27;;;;;;;;;;4900799;29;20464;-72
2023/12/27 12:33:05;;;;;;;14.17;5.40;;;;;;;;;;4903766;29;20229;-75
2023/12/27 12:35:30;;;;;;;12.70;5.30;;;;;;;;;;4905819;29;20260;-74
2023/12/27 12:37:55;;;;;;;11.93;4.90;;;;;;;;;;4904201;29;20234;-74
2023/12/27 12:40:21;;;;;;;13.93;5.17;;;;;;;;;;4921612;29;20221;-74
2023/12/27 12:42:47;;;;;;;12.20;5.23;;;;;;;;;;4907598;29;20349;-73
2023/12/27 12:45:12;;;;;;;10.73;4.80;;;;;;;;;;4923113;29;20226;-74
2023/12/27 12:47:37;;;;;;;10.67;4.80;;;;;;;;;;4905408;29;20236;-74
2023/12/27 12:50:05;;;;;;;10.17;4.93;;;;;;;;;;4923709;29;20225;-74
2023/12/27 12:52:33;;;;;;;12.87;5.47;;;;;;;;;;4907360;29;20311;-74
2023/12/27 12:54:59;;;;;;;12.00;5.07;;;;;;;;;;4913687;29;20269;-74
2023/12/27 12:57:24;;;;;;;11.00;5.00;;;;;;;;;;4910494;29;20317;-74
2023/12/27 12:59:50;;;;;;;13.23;4.67;;;;;;;;;;4926094;29;20225;-73
2023/12/27 13:02:15;;;;;;;10.10;5.00;;;;;;;;;;4925556;29;20264;-72
2023/12/27 13:04:41;;;;;;;9.73;5.00;;;;;;;;;;4926092;29;20531;-75
2023/12/27 13:07:07;;;;;;;8.70;4.50;;;;;;;;;;4909580;29;20249;-74
2023/12/27 13:09:50;;;;;;;9.10;4.77;;;;;;;;;;4926954;29;20542;-73
2023/12/27 13:12:16;;;;;;;14.07;5.00;;;;;;;;;;4926470;29;20320;-72
2023/12/27 13:14:41;;;;;;;10.97;4.93;;;;;;;;;;4927113;29;20387;-75
2023/12/27 13:17:06;;;;;;;8.90;4.60;;;;;;;;;;4907671;29;20235;-74
2023/12/27 13:19:32;;;;;;;10.40;4.90;;;;;;;;;;4926425;29;20225;-74
2023/12/27 13:21:57;;;;;;;9.60;5.07;;;;;;;;;;4908712;29;20248;-75
2023/12/27 13:24:22;;;;;;;9.10;4.97;;;;;;;;;;4927060;29;20684;-73
2023/12/27 13:26:48;;;;;;;11.70;5.10;;;;;;;;;;4925357;29;20703;-72
2023/12/27 13:29:13;;;;;;;10.93;5.20;;;;;;;;;;4926929;29;20233;-74
2023/12/27 13:31:39;;;;;;;11.43;5.17;;;;;;;;;;4924900;29;20264;-74
2023/12/27 13:34:06;;;;;;;9.97;4.97;;;;;;;;;;4926935;29;20225;-73
2023/12/27 13:36:31;;;;;;;10.93;5.07;;;;;;;;;;4926908;29;20221;-73
2023/12/27 13:38:56;;;;;;;10.50;5.00;;;;;;;;;;4924134;29;20296;-74
2023/12/27 13:41:22;;;;;;;12.40;5.20;;;;;;;;;;4925388;29;20754;-74
2023/12/27 13:43:47;;;;;;;13.67;5.10;;;;;;;;;;4925738;29;20826;-74
2023/12/27 13:46:13;;;;;;;14.00;5.40;;;;;;;;;;4926200;29;21213;-74
2023/12/27 13:48:38;;;;;;;11.07;5.37;;;;;;;;;;4924992;29;20241;-73
2023/12/27 13:51:03;;;;;;;8.87;4.97;;;;;;;;;;4907449;29;20232;-74
2023/12/27 13:53:29;;;;;;;12.20;5.00;;;;;;;;;;4925550;29;20281;-74
2023/12/27 13:55:54;;;;;;;11.23;5.20;;;;;;;;;;4922695;29;20636;-73
2023/12/27 13:58:20;;;;;;;12.40;5.00;;;;;;;;;;4926397;29;20287;-73
2023/12/27 14:00:45;;;;;;;12.30;5.30;;;;;;;;;;4925335;29;20249;-74
2023/12/27 14:03:11;;;;;;;14.60;5.00;;;;;;;;;;4908691;29;20256;-75
2023/12/27 14:05:38;;;;;;;12.10;5.00;;;;;;;;;;4923138;29;20272;-74
2023/12/27 14:08:05;;;;;;;11.33;5.00;;;;;;;;;;4923709;29;20248;-74
2023/12/27 14:10:30;;;;;;;10.30;4.43;;;;;;;;;;4924924;29;20256;-74
2023/12/27 14:12:55;;;;;;;9.47;4.20;;;;;;;;;;4926112;29;20275;-75
2023/12/27 14:15:21;;;;;;;9.77;4.40;;;;;;;;;;4924572;29;20233;-74
2023/12/27 14:17:46;;;;;;;10.57;4.70;;;;;;;;;;4909559;29;20241;-74
2023/12/27 14:20:12;;;;;;;13.20;4.70;;;;;;;;;;4922646;29;20229;-74